Aviation Digital Data Service (ADDS)

Output produced by METARs form (2056 UTC 29 May 2017)
found at http://www.aviationweather.gov/adds/metars/
 
KCAE 292037Z 2921/3018 30010G16KT P6SM SCT035 SCT250 
     FM292200 24010KT P6SM VCTS SCT040CB BKN150 
     FM300500 23005KT P6SM BKN100
       
KCAK 292046Z 2921/3018 24011KT P6SM VCSH SCT040 BKN090 
     FM300000 22007KT P6SM SCT090 
     FM300800 22005KT P6SM VCSH SCT050 BKN150 
     FM301200 23010KT P6SM SCT150
       
KCAR 292017Z 2920/3018 11007G13KT P6SM BKN030 
     FM300300 14007KT 6SM -SHRA OVC022 
     FM300800 15007KT 3SM -SHRA BR OVC015 
     FM301230 16008KT P6SM OVC025 
     FM301600 16009KT P6SM BKN035
       
KCDC 291720Z 2918/3018 01007KT P6SM FEW100 
     FM300200 VRB04KT P6SM SCT100
       
KCDR 291721Z 2918/3018 33015G28KT P6SM SKC 
     FM300000 01010KT P6SM SKC 
     FM300600 27004KT P6SM SKC 
     FM301500 32008KT P6SM SKC
       
KCDS 291720Z 2918/3018 15007KT P6SM FEW250
       
KCEC 291737Z 2918/3018 29007KT P6SM SCT004 OVC016 
     FM292000 28007KT P6SM OVC015 
     FM300400 VRB04KT 5SM BR OVC007
       
TAF KCEF 291800Z 2918/3024 09006KT 9000 -RA SCT020 OVC030 QNH2992INS 
     BECMG 2919/2920 11009KT 8000 -RA FEW007 BKN010 OVC020 QNH2995INS 
     BECMG 2923/2924 12009KT 9999 NSW SCT009 BKN015 OVC025 QNH3003INS WND 17009KT AFT 3010 TX19/3018Z TN10/3009Z
       
KCGI 291720Z 2918/3018 25007KT P6SM SCT250 
     FM300400 VRB03KT P6SM SCT200
       
KCHA 291728Z 2918/3018 27007KT P6SM -RA SCT020 BKN040 
     FM291900 29007KT P6SM VCTS SCT030CB BKN050 
     FM300100 00000KT P6SM SCT050 BKN100 
     FM300600 00000KT P6SM SCT020 OVC035 
     FM301400 24005KT P6SM SCT050 BKN150
       
KCHO 291730Z 2918/3018 00000KT P6SM BKN060 
     FM300900 00000KT 2SM BR BKN050 
     FM301200 00000KT 4SM BR BKN060 
     FM301400 VRB03KT 4SM BR SCT200 
     FM301500 VRB03KT P6SM SCT250
       
KCHS 291726Z 2918/3018 23010KT P6SM SCT060 
     FM300000 23006KT P6SM SCT050 BKN250 
     FM301300 29007KT P6SM FEW035 SCT200
       
KCID 291720Z 2918/3018 30018G25KT P6SM SCT080 
     FM300000 28006KT P6SM FEW200 
     FM301500 27008KT P6SM SCT100
       
KCKB 291720Z 2918/3018 26005KT P6SM BKN040 
     FM300100 VRB03KT P6SM SCT050 
     FM301600 23007KT P6SM BKN050
       
KCKV 292010Z 2920/3018 28007KT P6SM SCT050 SCT150
       
KCLE 291922Z 2919/3024 24012G25KT P6SM FEW050 SCT100 
     FM300000 22007KT P6SM VCSH BKN050 BKN150 
     FM300800 21006KT P6SM SCT150 
     FM301400 24009KT P6SM FEW200
       
KCLL 292015Z 2920/3018 33009KT P6SM FEW026 BKN250 
     FM300200 09005KT P6SM SCT025 BKN050 
     FM301100 07003KT P6SM BKN025 BKN050
       
KCLM 291857Z 2919/3018 32008KT P6SM SKC 
     FM300200 29012G22KT P6SM FEW012 
     FM300700 30007KT P6SM OVC012 
     FM301400 30007KT P6SM OVC009
       
KCLT 291720Z 2918/3018 24004KT P6SM SCT060 
     FM292000 28005KT P6SM VCSH BKN060 
     TEMPO 2922/3002 VRB20G30KT 4SM TSRA BR BKN035CB 
     FM300600 01004KT P6SM SCT040 OVC090 
     FM301000 VRB02KT 5SM BR OVC030 
     FM301500 25005KT P6SM BKN035 
     PROB30 3015/3018 4SM -TSRA OVC025CB
       
KCMA 292004Z 2920/3018 25008KT P6SM BKN015 
     FM292130 26012KT P6SM SCT200 
     FM300300 VRB03KT P6SM SCT200 
     FM300500 VRB03KT P6SM OVC007 
     FM301600 VRB03KT P6SM OVC010
       
KCMH 291930Z 2920/3018 24014G20KT P6SM VCSH BKN060 
     TEMPO 2920/2922 6SM -SHRA OVC035 
     FM300000 23008KT P6SM SCT080 
     FM301500 25012KT P6SM SCT060
       
KCMI 291751Z 2918/3018 24014G22KT P6SM FEW100 
     FM292100 27010KT P6SM VCTS SCT070CB SCT250 
     FM300000 28006KT P6SM SCT250 
     FM301400 26010KT P6SM FEW250 
     FM301700 26012G20KT P6SM FEW200
       
KCMX 291958Z 2920/3018 27014G22KT 6SM -SHRA OVC008 
     FM292100 26015G22KT 6SM -SHRA OVC008 
     FM300100 26014KT 6SM BR VCSH OVC015 
     FM301200 26015G22KT P6SM OVC015
       
KCNM 291720Z 2918/3018 14011G16KT P6SM FEW250 
     FM300100 12007KT P6SM SCT100
       
KCNU 291720Z 2918/3018 33009KT P6SM SKC 
     FM300000 01005KT P6SM SCT200 
     FM300300 VRB03KT P6SM SCT200 
     FM301500 19007KT P6SM SCT150
       
KCNY 291736Z 2918/3018 05005KT P6SM SKC 
     FM292100 31004KT P6SM SKC 
     FM300400 04004KT P6SM SKC 
     FM301500 11006KT P6SM FEW200
       
KCOD 291727Z 2918/3018 24005KT P6SM SCT060 
     FM292100 36007KT P6SM VCSH SCT070 BKN100 
     FM300200 VRB05KT P6SM SCT100 AMD LTD TO CLD VIS AND WIND
       
KCOE 291725Z 2918/3018 02009KT P6SM SCT070 
     FM300300 04004KT P6SM SKC 
     FM301500 04010KT P6SM SKC
       
TAF AMD KCOF 291050Z 2910/3016 32007KT 9999 SCT012 QNH3002INS 
     TEMPO 2911/2913 BKN012 
     BECMG 2913/2914 08010KT 9999 FEW035 SCT280 QNH3000INS 
     BECMG 3004/3005 19008KT 9999 FEW035 SCT050 QNH3006INS TX30/2917Z TN25/2910Z AMD 291050 FCST BY USAF WX MET TECH LAST NO AMDS AFT 2917 NEXT 3010
       
KCON 291735Z 2918/3018 10007KT P6SM -SHRA OVC010 
     FM300000 VRB03KT 5SM BR OVC008 
     FM300400 00000KT 2SM BR OVC003 
     FM301400 15005KT P6SM OVC012
       
KCOS 291952Z 2920/3018 15010KT P6SM VCTS SCT050CB BKN100 
     TEMPO 2920/2921 VRB15G30KT -TSRA BKN040CB 
     FM300000 02012KT P6SM VCTS SCT050CB BKN100 
     FM300300 01005KT P6SM SCT100
       
KCOU 291740Z 2918/3018 25013G19KT P6SM SCT100 
     FM292000 30013G19KT P6SM SKC 
     FM300100 33006KT P6SM SKC 
     FM300600 VRB04KT P6SM SKC 
     FM301500 21007KT P6SM SCT100
       
KCPS 291740Z 2918/3018 24011KT P6SM SCT100 
     FM292100 27012G18KT P6SM VCSH FEW050 BKN080 
     FM300000 32009KT P6SM SCT100 
     FM300600 VRB04KT P6SM SKC 
     FM301500 24007KT P6SM SCT120
       
KCRE 291720Z 2918/3018 18010KT P6SM SKC 
     FM292200 21011KT P6SM SCT250 
     FM300400 21009KT P6SM BKN110 
     PROB30 3006/3012 4SM -TSRA OVC015CB 
     FM301400 25009KT P6SM BKN060 
     PROB30 3014/3018 4SM -TSRA OVC015CB
       
KCRG 291853Z 2919/3018 VRB03KT P6SM SCT045 SCT250 
     FM291930 11011G16KT P6SM SCT050 SCT250 
     FM300300 24006KT P6SM SCT250
       
KCRP 291720Z 2918/3018 09009KT P6SM SCT025 OVC045 
     TEMPO 2918/2920 VRB18G28KT 5SM -SHRA BKN019 OVC045 
     FM300600 05008KT P6SM SCT022 BKN080 
     TEMPO 3008/3012 4SM BR BKN020
       
KCRQ 292002Z 2920/3018 VRB06KT P6SM BKN009 
     FM292100 24008KT P6SM SCT011 SCT200 
     FM300000 VRB04KT P6SM OVC010 
     FM300600 VRB03KT P6SM OVC007 
     FM301600 VRB04KT P6SM OVC010
       
KCRW 291720Z 2918/3018 25005KT P6SM BKN040 BKN250 
     FM292200 VRB03KT P6SM SCT050 
     FM301600 24004KT P6SM BKN050
       
KCSG 291727Z 2918/3018 26010KT P6SM SCT050 
     TEMPO 2919/2923 VRB10G18KT 4SM -TSRA BR BKN025CB 
     FM292300 25007KT P6SM VCTS SCT050CB BKN120 
     FM300400 28003KT P6SM BKN050 
     FM301200 27006KT P6SM BKN025 
     PROB30 3016/3018 4SM -TSRA BKN020CB
       
KCSM 291720Z 2918/3018 32004KT P6SM FEW250 
     FM300000 16005KT P6SM SCT120 
     FM300800 22008KT P6SM SCT120
       
KCSV 292048Z 2921/3018 26005KT P6SM VCSH SCT040 
     FM300000 24002KT P6SM SCT050 
     FM300800 00000KT 4SM BR SCT100 
     FM301400 29007KT P6SM SCT030
       
KCTB 291720Z 2918/3018 13010KT P6SM FEW070 SCT150 
     TEMPO 2922/3001 VRB20G30KT -TSRA BKN070CB
       
KCUB 292037Z 2921/3018 30005KT P6SM SCT035 SCT250 
     FM292200 24007KT P6SM VCTS SCT040CB BKN150 
     FM300500 23005KT P6SM BKN100
       
KCVG 292050Z 2921/3024 24012G20KT P6SM BKN060 
     FM300000 24006KT P6SM SCT080 
     FM301600 26012KT P6SM SCT060
       
TAF KCVS 291800Z 2918/3024 19009KT 9999 SCT080 QNH3010INS 
     BECMG 2921/2922 18012G18KT 9999 BKN080 QNH3005INS 
     TEMPO 2923/3004 VRB20G30KT VCTS BKN080CB 
     BECMG 3003/3004 25009KT 9999 VCSH OVC080 QNH3017INS 
     BECMG 3008/3009 VRB06KT 9999 NSW OVC080 QNH3018INS 
     BECMG 3014/3015 VRB06KT 9999 OVC050 QNH3014INS 
     BECMG 3018/3019 18012KT 9999 VCTS BKN050CB OVC100 QNH3011INS 
     BECMG 3022/3023 18012G18KT 9999 NSW BKN100 QNH3012INS TX28/2923Z TN12/3012Z
       
KCWA 291730Z 2918/3018 27015G23KT P6SM VCSH SCT022 OVC045 
     TEMPO 2918/2922 3SM SHRA BR OVC030 
     FM292200 27013G21KT P6SM VCSH OVC060 
     FM300200 28010G16KT P6SM BKN050 
     FM300300 27008KT P6SM BKN060 
     FM301300 27010G15KT P6SM BKN025
       
KCXO 292015Z 2920/3018 33004KT P6SM SCT023 BKN250 
     FM300300 09005KT P6SM SCT025 BKN050 
     FM301100 06003KT P6SM BKN025 BKN050
       
KCXP 291720Z 2918/3018 11005KT P6SM BKN250 
     FM292200 26009KT P6SM SCT080 BKN200 
     FM300400 VRB04KT P6SM FEW110 BKN180
       
KCYS 291721Z 2918/3018 33009G20KT P6SM BKN050 BKN110 
     FM292000 32010G20KT P6SM VCTS BKN050CB BKN110 
     FM300000 29008KT P6SM SCT050